createdAt,value
2022-11-20T00:01:11.348Z,84.56
2022-11-20T00:03:38.191Z,83.82
2022-11-20T00:06:07.242Z,83.83
2022-11-20T00:08:34.515Z,84.21
2022-11-20T00:11:18.094Z,84.60
2022-11-20T00:13:45.374Z,84.49
2022-11-20T00:16:13.260Z,84.32
2022-11-20T00:18:39.835Z,84.27
2022-11-20T00:21:11.297Z,84.48
2022-11-20T00:23:37.807Z,84.48
2022-11-20T00:26:06.394Z,84.63
2022-11-20T00:28:33.083Z,84.11
2022-11-20T00:31:08.632Z,84.50
2022-11-20T00:33:35.469Z,83.80
2022-11-20T00:36:04.729Z,84.16
2022-11-20T00:38:32.296Z,83.46
2022-11-20T00:41:01.052Z,83.92
2022-11-20T00:43:28.526Z,83.25
2022-11-20T00:46:10.126Z,83.90
2022-11-20T00:48:36.986Z,83.69
2022-11-20T00:51:03.471Z,84.07
2022-11-20T00:53:30.121Z,84.06
2022-11-20T00:56:01.762Z,84.55
2022-11-20T00:58:33.352Z,83.29
2022-11-20T01:01:03.169Z,84.01
2022-11-20T01:03:39.016Z,82.93
2022-11-20T01:06:08.860Z,82.96
2022-11-20T01:08:37.274Z,83.93
2022-11-20T01:11:07.016Z,83.36
2022-11-20T01:13:40.247Z,84.42
2022-11-20T01:16:11.689Z,83.11
2022-11-20T01:18:40.096Z,83.53
2022-11-20T01:21:09.551Z,83.45
2022-11-20T01:23:39.073Z,83.43
2022-11-20T01:26:08.138Z,83.80
2022-11-20T01:28:35.665Z,83.96
2022-11-20T01:31:10.987Z,83.69
2022-11-20T01:33:37.451Z,84.50
2022-11-20T01:36:06.329Z,83.53
2022-11-20T01:38:32.844Z,84.16
2022-11-20T01:40:59.428Z,84.36
2022-11-20T01:43:26.921Z,84.55
2022-11-20T01:46:14.412Z,83.97
2022-11-20T01:49:02.436Z,83.24
2022-11-20T01:52:07.418Z,83.52
2022-11-20T01:54:43.375Z,83.96
2022-11-20T01:57:12.966Z,84.72
2022-11-20T01:59:45.972Z,84.10
2022-11-20T02:02:12.390Z,84.51
2022-11-20T02:04:38.885Z,83.74
2022-11-20T02:07:06.505Z,83.37
2022-11-20T02:09:33.091Z,84.40
2022-11-20T02:12:00.334Z,84.49
2022-11-20T02:14:27.459Z,84.62
2022-11-20T02:16:55.857Z,83.54
2022-11-20T02:19:32.695Z,84.23
2022-11-20T02:22:20.298Z,83.64
2022-11-20T02:24:49.768Z,84.23
2022-11-20T02:27:17.987Z,83.49
2022-11-20T02:30:05.456Z,84.22
2022-11-20T02:32:34.796Z,83.74
2022-11-20T02:35:10.293Z,84.51
2022-11-20T02:37:40.050Z,83.34
2022-11-20T02:40:07.229Z,84.00
2022-11-20T02:42:33.688Z,84.13
2022-11-20T02:45:00.170Z,83.98
2022-11-20T02:47:26.666Z,84.24
2022-11-20T02:49:53.121Z,83.93
2022-11-20T02:52:19.596Z,83.49
2022-11-20T02:54:46.076Z,83.51
2022-11-20T02:57:12.523Z,83.85
2022-11-20T02:59:38.981Z,84.73
2022-11-20T03:02:05.960Z,84.38
2022-11-20T03:04:32.464Z,83.50
2022-11-20T03:06:59.000Z,84.04
2022-11-20T03:09:25.631Z,84.28
2022-11-20T03:11:52.207Z,83.78
2022-11-20T03:14:18.816Z,83.92
2022-11-20T03:16:45.275Z,84.74
2022-11-20T03:19:12.903Z,84.48
2022-11-20T03:21:39.349Z,84.52
2022-11-20T03:24:06.143Z,84.61
2022-11-20T03:26:32.799Z,84.31
2022-11-20T03:29:01.361Z,84.13
2022-11-20T03:31:30.857Z,83.85
2022-11-20T03:33:58.784Z,84.99
2022-11-20T03:36:27.885Z,84.61
2022-11-20T03:38:55.750Z,85.07
2022-11-20T03:41:24.787Z,85.21
2022-11-20T03:43:52.366Z,84.78
2022-11-20T03:46:19.028Z,86.95
2022-11-20T03:48:51.152Z,89.00
2022-11-20T03:51:29.511Z,90.03
2022-11-20T03:53:58.633Z,90.41
2022-11-20T03:56:27.905Z,90.66
2022-11-20T03:58:54.843Z,91.39
2022-11-20T04:01:23.936Z,92.26
2022-11-20T04:03:53.295Z,92.23
2022-11-20T04:06:22.796Z,92.35
2022-11-20T04:08:53.629Z,92.32
2022-11-20T04:11:30.076Z,93.86
2022-11-20T04:13:59.528Z,93.13
2022-11-20T04:16:27.286Z,93.46
2022-11-20T04:18:55.806Z,93.31
2022-11-20T04:21:23.042Z,92.98
2022-11-20T04:23:50.562Z,93.91
2022-11-20T04:26:17.861Z,93.35
2022-11-20T04:28:44.373Z,93.67
2022-11-20T04:31:15.719Z,94.09
2022-11-20T04:33:42.510Z,93.87
2022-11-20T04:36:14.550Z,94.87
2022-11-20T04:38:41.221Z,94.27
2022-11-20T04:41:12.047Z,94.92
2022-11-20T04:43:38.502Z,94.33
2022-11-20T04:46:05.040Z,94.18
2022-11-20T04:48:31.585Z,94.26
2022-11-20T04:50:58.425Z,95.05
2022-11-20T04:53:25.067Z,94.44
2022-11-20T04:55:51.558Z,95.49
2022-11-20T04:58:18.074Z,95.20
2022-11-20T05:00:44.595Z,94.24
2022-11-20T05:03:11.066Z,94.83
2022-11-20T05:05:37.546Z,94.70
2022-11-20T05:08:04.234Z,94.65
2022-11-20T05:10:30.723Z,95.44
2022-11-20T05:12:58.078Z,95.51
2022-11-20T05:15:24.857Z,96.06
2022-11-20T05:17:52.791Z,95.79
2022-11-20T05:20:20.562Z,96.47
2022-11-20T05:22:47.007Z,96.60
2022-11-20T05:25:13.530Z,96.62
2022-11-20T05:27:40.025Z,96.21
2022-11-20T05:30:07.682Z,95.44
2022-11-20T05:32:34.286Z,95.71
2022-11-20T05:35:00.855Z,96.19
2022-11-20T05:37:27.366Z,96.92
2022-11-20T05:39:53.823Z,96.67
2022-11-20T05:42:32.307Z,96.89
2022-11-20T05:45:02.432Z,97.18
2022-11-20T05:47:33.902Z,96.96
2022-11-20T05:50:00.679Z,95.88
2022-11-20T05:52:31.049Z,97.03
2022-11-20T05:54:58.165Z,97.22
2022-11-20T05:57:24.712Z,97.02
2022-11-20T05:59:51.177Z,96.59
2022-11-20T06:02:17.835Z,96.10
2022-11-20T06:04:44.335Z,96.93
2022-11-20T06:07:11.284Z,97.57
2022-11-20T06:09:38.120Z,96.49
2022-11-20T06:12:04.930Z,97.28
2022-11-20T06:14:31.415Z,96.51
2022-11-20T06:16:58.009Z,97.71
2022-11-20T06:19:24.473Z,97.57
2022-11-20T06:21:51.082Z,97.65
2022-11-20T06:24:17.956Z,97.86
2022-11-20T06:26:45.239Z,98.57
2022-11-20T06:29:11.732Z,98.83
2022-11-20T06:31:38.890Z,98.61
2022-11-20T06:34:07.152Z,98.78
2022-11-20T06:36:34.173Z,98.93
2022-11-20T06:39:01.525Z,98.93
2022-11-20T06:41:28.941Z,99.54
2022-11-20T06:43:55.561Z,100.00
2022-11-20T06:46:22.539Z,100.00
2022-11-20T06:48:49.981Z,100.00
2022-11-20T06:51:17.525Z,100.00
2022-11-20T06:53:44.162Z,100.00
2022-11-20T06:56:11.034Z,100.00
2022-11-20T06:58:37.959Z,100.00
2022-11-20T07:01:11.090Z,100.00
2022-11-20T07:03:38.399Z,100.00
2022-11-20T07:06:05.728Z,100.00
2022-11-20T07:08:32.972Z,100.00
2022-11-20T07:11:05.365Z,100.00
2022-11-20T07:13:32.137Z,100.00
2022-11-20T07:16:04.154Z,100.00
2022-11-20T07:18:30.971Z,100.00
2022-11-20T07:21:00.457Z,100.00
2022-11-20T07:23:26.921Z,100.00
2022-11-20T07:25:53.385Z,100.00
2022-11-20T07:28:19.844Z,100.00
2022-11-20T07:30:54.008Z,100.00
2022-11-20T07:33:21.069Z,100.00
2022-11-20T07:35:47.728Z,100.00
2022-11-20T07:38:14.223Z,100.00
2022-11-20T07:40:40.796Z,100.00
2022-11-20T07:43:07.419Z,100.00
2022-11-20T07:45:33.979Z,100.00
2022-11-20T07:48:00.449Z,100.00
2022-11-20T07:50:26.949Z,100.00
2022-11-20T07:52:53.629Z,100.00
2022-11-20T07:55:20.063Z,100.00
2022-11-20T07:57:46.538Z,100.00
2022-11-20T08:00:13.796Z,100.00
2022-11-20T08:02:41.521Z,100.00
2022-11-20T08:05:09.307Z,100.00
2022-11-20T08:07:40.642Z,100.00
2022-11-20T08:10:09.263Z,100.00
2022-11-20T08:12:54.542Z,100.00
2022-11-20T08:15:21.157Z,100.00
2022-11-20T08:18:08.349Z,100.00
2022-11-20T08:20:35.025Z,100.00
2022-11-20T08:23:06.789Z,100.00
2022-11-20T08:25:37.635Z,100.00
2022-11-20T08:28:19.906Z,100.00
2022-11-20T08:30:47.233Z,100.00
2022-11-20T08:33:13.875Z,100.00
2022-11-20T08:35:42.065Z,100.00
2022-11-20T08:38:10.030Z,100.00
2022-11-20T08:40:36.631Z,100.00
2022-11-20T08:43:03.096Z,100.00
2022-11-20T08:45:33.695Z,100.00
2022-11-20T08:48:02.456Z,100.00
2022-11-20T08:50:28.990Z,100.00
2022-11-20T08:52:55.936Z,100.00
2022-11-20T08:55:22.411Z,100.00
2022-11-20T08:57:51.021Z,100.00
2022-11-20T09:00:18.195Z,100.00
2022-11-20T09:02:44.670Z,100.00
2022-11-20T09:05:11.495Z,100.00
2022-11-20T09:07:38.097Z,100.00
2022-11-20T09:10:23.003Z,100.00
2022-11-20T09:12:52.572Z,100.00
2022-11-20T09:15:19.797Z,100.00
2022-11-20T09:17:53.244Z,100.00
2022-11-20T09:20:19.968Z,100.00
2022-11-20T09:22:46.428Z,100.00
2022-11-20T09:25:12.977Z,100.00
2022-11-20T09:27:39.691Z,100.00
2022-11-20T09:30:06.741Z,100.00
2022-11-20T09:32:33.187Z,100.00
2022-11-20T09:37:27.352Z,100.00
2022-11-20T09:39:54.291Z,100.00
2022-11-20T09:42:36.158Z,100.00
2022-11-20T09:45:16.937Z,100.00
2022-11-20T09:47:52.548Z,100.00
2022-11-20T09:50:43.569Z,100.00
2022-11-20T09:53:41.872Z,100.00
2022-11-20T09:56:11.843Z,100.00
2022-11-20T09:58:43.770Z,100.00
2022-11-20T10:01:15.179Z,100.00
2022-11-20T10:03:56.790Z,100.00
2022-11-20T10:06:38.208Z,100.00
2022-11-20T10:09:16.044Z,100.00
2022-11-20T10:11:48.567Z,100.00
2022-11-20T10:14:27.406Z,100.00
2022-11-20T10:17:07.250Z,100.00
2022-11-20T10:20:23.252Z,100.00
2022-11-20T10:23:25.834Z,100.00
2022-11-20T10:26:18.671Z,100.00
2022-11-20T10:29:09.970Z,100.00
2022-11-20T10:31:42.379Z,100.00
2022-11-20T10:34:29.187Z,100.00
2022-11-20T10:37:19.430Z,100.00
2022-11-20T10:39:54.596Z,100.00
2022-11-20T10:42:43.467Z,100.00
2022-11-20T10:45:25.124Z,100.00
2022-11-20T10:47:59.955Z,100.00
2022-11-20T10:50:27.741Z,100.00
2022-11-20T10:53:16.396Z,100.00
2022-11-20T10:56:01.293Z,100.00
2022-11-20T10:58:33.694Z,100.00
2022-11-20T11:01:15.051Z,100.00
2022-11-20T11:03:44.415Z,100.00
2022-11-20T11:06:38.759Z,100.00
2022-11-20T11:09:12.913Z,100.00
2022-11-20T11:11:39.452Z,100.00
2022-11-20T11:14:07.978Z,100.00
2022-11-20T11:16:34.640Z,100.00
2022-11-20T11:19:12.576Z,100.00
2022-11-20T11:21:44.438Z,100.00
2022-11-20T11:27:17.313Z,100.00
2022-11-20T11:29:44.485Z,100.00
2022-11-20T11:32:21.587Z,100.00
2022-11-20T11:35:20.646Z,100.00
2022-11-20T11:37:48.907Z,100.00
2022-11-20T11:40:23.777Z,100.00
2022-11-20T11:42:58.898Z,100.00
2022-11-20T11:45:25.743Z,100.00
2022-11-20T11:47:55.040Z,100.00
2022-11-20T11:50:27.256Z,100.00
2022-11-20T11:53:17.634Z,100.00
2022-11-20T11:56:04.919Z,100.00
2022-11-20T11:58:52.572Z,100.00
2022-11-20T12:01:35.083Z,100.00
2022-11-20T12:04:14.330Z,100.00
2022-11-20T12:06:45.411Z,100.00
2022-11-20T12:09:13.033Z,100.00
2022-11-20T12:11:50.721Z,100.00
2022-11-20T12:14:27.945Z,100.00
2022-11-20T12:16:56.633Z,100.00
2022-11-20T12:19:23.394Z,100.00
2022-11-20T12:22:15.489Z,100.00
2022-11-20T12:24:51.387Z,100.00
2022-11-20T12:27:59.249Z,100.00
2022-11-20T12:30:26.020Z,100.00
2022-11-20T12:32:52.422Z,100.00
2022-11-20T12:35:21.865Z,100.00
2022-11-20T12:38:06.633Z,100.00
2022-11-20T12:40:36.091Z,99.82
2022-11-20T12:43:33.425Z,100.00
2022-11-20T12:46:02.517Z,99.76
2022-11-20T12:48:46.408Z,99.42
2022-11-20T12:51:27.056Z,99.99
2022-11-20T12:54:21.037Z,100.00
2022-11-20T12:57:16.710Z,100.00
2022-11-20T12:59:58.087Z,100.00
2022-11-20T13:02:45.515Z,100.00
2022-11-20T13:05:18.171Z,99.89
2022-11-20T13:07:45.970Z,100.00
2022-11-20T13:10:34.845Z,100.00
2022-11-20T13:13:14.603Z,100.00
2022-11-20T13:15:55.357Z,100.00
2022-11-20T13:18:22.397Z,100.00
2022-11-20T13:20:50.532Z,100.00
2022-11-20T13:23:28.389Z,100.00
2022-11-20T13:26:07.015Z,100.00
2022-11-20T13:28:34.084Z,100.00
2022-11-20T13:31:00.751Z,100.00
2022-11-20T13:33:34.586Z,99.63
2022-11-20T13:36:21.168Z,99.25
2022-11-20T13:38:50.422Z,100.00
2022-11-20T13:41:34.232Z,98.97
2022-11-20T13:44:35.542Z,99.58
2022-11-20T13:47:02.316Z,98.20
2022-11-20T13:49:38.892Z,98.37
2022-11-20T13:52:38.894Z,98.52
2022-11-20T13:55:05.317Z,97.86
2022-11-20T13:57:52.855Z,97.93
2022-11-20T14:00:21.695Z,96.38
2022-11-20T14:03:19.117Z,97.97
2022-11-20T14:06:04.416Z,99.23
2022-11-20T14:08:40.592Z,97.72
2022-11-20T14:11:36.180Z,99.42
2022-11-20T14:14:16.686Z,99.81
2022-11-20T14:16:45.249Z,97.55
2022-11-20T14:19:20.779Z,98.06
2022-11-20T14:21:53.563Z,98.16
2022-11-20T14:24:22.351Z,98.46
2022-11-20T14:26:51.286Z,98.77
2022-11-20T14:29:19.284Z,96.72
2022-11-20T14:31:52.645Z,96.04
2022-11-20T14:34:25.840Z,94.70
2022-11-20T14:36:59.577Z,96.90
2022-11-20T14:39:51.079Z,98.74
2022-11-20T14:42:25.529Z,95.76
2022-11-20T14:44:56.350Z,96.62
2022-11-20T14:47:26.870Z,97.19
2022-11-20T14:49:54.679Z,95.67
2022-11-20T14:52:26.449Z,95.33
2022-11-20T14:55:00.522Z,95.87
2022-11-20T14:57:30.489Z,95.99
2022-11-20T15:00:19.261Z,97.20
2022-11-20T15:02:48.474Z,95.67
2022-11-20T15:05:16.520Z,93.80
2022-11-20T15:07:48.873Z,95.85
2022-11-20T15:10:26.750Z,98.14
2022-11-20T15:12:56.366Z,96.98
2022-11-20T15:15:29.551Z,97.37
2022-11-20T15:17:56.539Z,94.68
2022-11-20T15:20:34.444Z,95.00
2022-11-20T15:23:00.933Z,96.09
2022-11-20T15:25:27.521Z,93.04
2022-11-20T15:27:57.875Z,96.18
2022-11-20T15:30:25.458Z,94.52
2022-11-20T15:32:52.132Z,95.55
2022-11-20T15:35:18.721Z,97.04
2022-11-20T15:37:45.286Z,93.94
2022-11-20T15:40:12.153Z,94.23
2022-11-20T15:42:38.681Z,93.19
2022-11-20T15:45:05.616Z,95.21
2022-11-20T15:47:35.311Z,96.13
2022-11-20T15:50:02.141Z,94.57
2022-11-20T15:52:33.216Z,96.19
2022-11-20T15:55:11.447Z,97.04
2022-11-20T15:57:37.912Z,95.82
2022-11-20T16:00:04.847Z,96.61
2022-11-20T16:02:31.311Z,96.44
2022-11-20T16:04:57.756Z,96.32
2022-11-20T16:07:24.579Z,96.41
2022-11-20T16:09:51.056Z,96.24
2022-11-20T16:12:37.492Z,97.51
2022-11-20T16:15:22.761Z,95.89
2022-11-20T16:17:49.217Z,97.42
2022-11-20T16:20:16.558Z,97.41
2022-11-20T16:22:43.041Z,95.56
2022-11-20T16:25:09.486Z,96.01
2022-11-20T16:27:35.915Z,95.88
2022-11-20T16:30:02.400Z,96.21
2022-11-20T16:32:28.877Z,97.19
2022-11-20T16:34:55.436Z,98.28
2022-11-20T16:37:21.898Z,98.34
2022-11-20T16:39:48.385Z,96.18
2022-11-20T16:42:14.830Z,97.94
2022-11-20T16:44:41.375Z,97.23
2022-11-20T16:47:07.937Z,96.74
2022-11-20T16:49:34.409Z,98.04
2022-11-20T16:52:01.422Z,97.25
2022-11-20T16:54:28.157Z,95.21
2022-11-20T16:56:54.762Z,97.62
2022-11-20T16:59:21.303Z,96.32
2022-11-20T17:01:47.848Z,96.51
2022-11-20T17:04:14.711Z,96.05
2022-11-20T17:06:44.202Z,96.11
2022-11-20T17:09:11.344Z,94.40
2022-11-20T17:11:37.855Z,97.22
2022-11-20T17:14:04.545Z,97.28
2022-11-20T17:16:31.562Z,96.35
2022-11-20T17:19:02.914Z,96.00
2022-11-20T17:21:35.882Z,94.52
2022-11-20T17:24:11.590Z,96.34
2022-11-20T17:26:40.671Z,96.47
2022-11-20T17:29:12.382Z,97.71
2022-11-20T17:31:39.676Z,96.72
2022-11-20T17:34:08.148Z,97.58
2022-11-20T17:36:34.926Z,97.23
2022-11-20T17:39:01.355Z,94.72
2022-11-20T17:41:29.543Z,96.79
2022-11-20T17:43:58.299Z,96.55
2022-11-20T17:46:27.134Z,96.69
2022-11-20T17:48:55.129Z,97.44
2022-11-20T17:51:29.843Z,98.39
2022-11-20T17:54:01.711Z,97.06
2022-11-20T17:56:51.880Z,97.86
2022-11-20T17:59:18.954Z,96.92
2022-11-20T18:01:45.868Z,97.96
2022-11-20T18:04:13.019Z,97.87
2022-11-20T18:06:40.055Z,97.56
2022-11-20T18:09:07.162Z,97.19
2022-11-20T18:11:36.212Z,97.79
2022-11-20T18:14:25.130Z,97.79
2022-11-20T18:16:54.944Z,98.78
2022-11-20T18:19:32.190Z,99.20
2022-11-20T18:22:01.229Z,97.01
2022-11-20T18:24:27.929Z,98.04
2022-11-20T18:26:54.435Z,98.12
2022-11-20T18:29:20.996Z,98.95
2022-11-20T18:31:48.271Z,96.55
2022-11-20T18:34:14.918Z,98.34
2022-11-20T18:36:48.081Z,98.64
2022-11-20T18:39:15.699Z,98.38
2022-11-20T18:42:01.369Z,98.09
2022-11-20T18:44:48.517Z,97.83
2022-11-20T18:47:17.745Z,98.95
2022-11-20T18:49:46.303Z,98.41
2022-11-20T18:52:13.291Z,97.63
2022-11-20T18:54:39.748Z,98.36
2022-11-20T18:57:06.278Z,96.70
2022-11-20T18:59:32.957Z,99.04
2022-11-20T19:01:59.473Z,97.62
2022-11-20T19:04:26.595Z,97.91
2022-11-20T19:06:56.222Z,97.41
2022-11-20T19:09:24.121Z,97.84
2022-11-20T19:11:52.080Z,98.45
2022-11-20T19:14:18.575Z,97.44
2022-11-20T19:16:45.151Z,98.40
2022-11-20T19:19:11.967Z,98.46
2022-11-20T19:21:38.446Z,98.39
2022-11-20T19:24:05.372Z,98.84
2022-11-20T19:26:34.402Z,98.90
2022-11-20T19:29:01.141Z,98.78
2022-11-20T19:31:27.634Z,98.73
2022-11-20T19:33:59.270Z,99.35
2022-11-20T19:36:28.666Z,99.46
2022-11-20T19:38:55.448Z,99.03
2022-11-20T19:41:28.910Z,98.37
2022-11-20T19:44:00.068Z,99.06
2022-11-20T19:46:27.892Z,99.90
2022-11-20T19:48:55.061Z,98.14
2022-11-20T19:51:27.398Z,99.51
2022-11-20T19:53:56.008Z,97.92
2022-11-20T19:56:23.120Z,98.90
2022-11-20T19:58:49.658Z,99.67
2022-11-20T20:01:19.110Z,98.37
2022-11-20T20:03:47.108Z,98.75
2022-11-20T20:06:19.491Z,99.76
2022-11-20T20:08:46.355Z,97.82
2022-11-20T20:11:20.363Z,98.72
2022-11-20T20:13:47.220Z,98.97
2022-11-20T20:16:16.181Z,99.32
2022-11-20T20:18:42.895Z,99.73
2022-11-20T20:21:11.889Z,99.71
2022-11-20T20:23:38.700Z,99.34
2022-11-20T20:26:07.250Z,99.22
2022-11-20T20:28:35.228Z,98.71
2022-11-20T20:31:13.054Z,100.00
2022-11-20T20:33:40.765Z,99.88
2022-11-20T20:36:09.462Z,99.98
2022-11-20T20:38:36.287Z,100.00
2022-11-20T20:41:02.980Z,99.89
2022-11-20T20:43:30.002Z,99.89
2022-11-20T20:45:56.467Z,99.11
2022-11-20T20:48:24.873Z,99.97
2022-11-20T20:51:03.832Z,99.72
2022-11-20T20:53:30.983Z,99.90
2022-11-20T20:56:01.785Z,100.00
2022-11-20T20:58:30.172Z,100.00
2022-11-20T21:01:08.201Z,100.00
2022-11-20T21:03:35.738Z,100.00
2022-11-20T21:06:02.916Z,100.00
2022-11-20T21:08:29.817Z,100.00
2022-11-20T21:11:07.877Z,100.00
2022-11-20T21:13:35.626Z,99.63
2022-11-20T21:16:03.093Z,99.99
2022-11-20T21:18:29.781Z,100.00
2022-11-20T21:21:14.675Z,100.00
2022-11-20T21:23:44.071Z,100.00
2022-11-20T21:26:11.155Z,100.00
2022-11-20T21:28:38.217Z,99.55
2022-11-20T21:31:13.246Z,100.00
2022-11-20T21:33:44.006Z,100.00
2022-11-20T21:36:12.752Z,99.99
2022-11-20T21:38:39.568Z,100.00
2022-11-20T21:41:08.787Z,99.73
2022-11-20T21:43:35.691Z,100.00
2022-11-20T21:46:07.726Z,100.00
2022-11-20T21:48:36.384Z,100.00
2022-11-20T21:51:06.949Z,99.81
2022-11-20T21:53:33.964Z,100.00
2022-11-20T21:56:01.298Z,100.00
2022-11-20T21:58:28.190Z,100.00
2022-11-20T22:00:54.877Z,100.00
2022-11-20T22:03:22.000Z,100.00
2022-11-20T22:05:56.415Z,100.00
2022-11-20T22:08:26.774Z,100.00
2022-11-20T22:10:57.599Z,100.00
2022-11-20T22:13:43.678Z,100.00
2022-11-20T22:16:10.868Z,100.00
2022-11-20T22:18:45.042Z,100.00
2022-11-20T22:21:12.545Z,100.00
2022-11-20T22:23:39.196Z,100.00
2022-11-20T22:26:07.601Z,100.00
2022-11-20T22:28:35.227Z,100.00
2022-11-20T22:31:03.192Z,100.00
2022-11-20T22:33:31.832Z,100.00
2022-11-20T22:36:03.097Z,100.00
2022-11-20T22:38:30.081Z,100.00
2022-11-20T22:41:09.302Z,100.00
2022-11-20T22:43:36.291Z,100.00
2022-11-20T22:46:10.954Z,100.00
2022-11-20T22:48:40.038Z,100.00
2022-11-20T22:51:14.627Z,100.00
2022-11-20T22:53:42.594Z,100.00
2022-11-20T22:56:14.384Z,100.00
2022-11-20T22:58:43.069Z,100.00
2022-11-20T23:01:13.812Z,100.00
2022-11-20T23:03:42.236Z,100.00
2022-11-20T23:06:12.148Z,100.00
2022-11-20T23:08:40.182Z,100.00
2022-11-20T23:11:10.000Z,100.00
2022-11-20T23:13:36.938Z,100.00
2022-11-20T23:16:07.109Z,100.00
2022-11-20T23:18:34.339Z,100.00
2022-11-20T23:21:09.641Z,100.00
2022-11-20T23:23:36.333Z,100.00
2022-11-20T23:26:05.297Z,100.00
2022-11-20T23:28:32.382Z,100.00
2022-11-20T23:30:59.412Z,100.00
2022-11-20T23:33:26.164Z,100.00
2022-11-20T23:35:53.279Z,100.00
2022-11-20T23:38:19.961Z,100.00
2022-11-20T23:40:48.174Z,100.00
2022-11-20T23:43:15.828Z,100.00
2022-11-20T23:45:56.737Z,100.00
2022-11-20T23:48:34.631Z,100.00
2022-11-20T23:51:01.807Z,100.00
2022-11-20T23:53:28.848Z,100.00
2022-11-20T23:55:58.015Z,100.00
2022-11-20T23:58:31.402Z,100.00
